Time;durP1;ratioP1;P1;durP2;ratioP2;P2;SDS_P1;SDS_P2;PMS_P1;PMS_P2;Temp;Humidity;BMP_temperature;BMP_pressure;BME280_temperature;BME280_humidity;BME280_pressure;Samples;Min_cycle;Max_cycle;Signal;HPM_P1;HPM_P2
2023/05/17 19:18:36;;;;;;;;;0.25;0.00;;;;;;;;5104688;27;13423;-76
2023/05/17 19:21:02;;;;;;;;;0.75;0.00;;;;;;;;5105774;28;11139;-81
2023/05/17 19:23:27;;;;;;;;;0.00;0.00;;;;;;;;5105984;28;8820;-78
2023/05/17 19:25:53;;;;;;;;;1.00;1.00;;;;;;;;5105135;28;8949;-77
2023/05/17 19:28:19;;;;;;;;;1.00;1.00;;;;;;;;5106920;28;8815;-74
2023/05/17 19:30:44;;;;;;;;;0.25;0.25;;;;;;;;5106546;27;11578;-75
2023/05/17 19:33:10;;;;;;;;;1.00;0.00;;;;;;;;5105759;28;9708;-75
2023/05/17 19:35:38;;;;;;;;;0.50;0.50;;;;;;;;5105132;28;8855;-72
2023/05/17 19:38:03;;;;;;;;;0.00;0.00;;;;;;;;5105915;28;8967;-76
2023/05/17 19:40:28;;;;;;;;;1.00;1.00;;;;;;;;5103943;28;10623;-74
2023/05/17 19:42:53;;;;;;;;;0.00;0.00;;;;;;;;5104684;27;8811;-75
2023/05/17 19:45:19;;;;;;;;;0.00;0.00;;;;;;;;5106244;28;8937;-76
2023/05/17 19:47:44;;;;;;;;;0.00;0.00;;;;;;;;5106371;28;8812;-71
2023/05/17 19:50:10;;;;;;;;;0.00;0.00;;;;;;;;5103757;28;8812;-71
2023/05/17 19:52:35;;;;;;;;;0.00;0.00;;;;;;;;5104720;28;8896;-70
2023/05/17 19:55:01;;;;;;;;;0.00;0.00;;;;;;;;5105756;28;10088;-68
2023/05/17 19:57:26;;;;;;;;;0.00;0.00;;;;;;;;5105662;28;8827;-67
2023/05/17 19:59:51;;;;;;;;;1.00;1.00;;;;;;;;5105459;28;8807;-67
2023/05/17 20:02:17;;;;;;;;;0.75;0.75;;;;;;;;5104590;28;8823;-68
2023/05/17 20:04:42;;;;;;;;;1.00;1.00;;;;;;;;5112861;28;8809;-68
2023/05/17 20:07:07;;;;;;;;;2.00;1.00;;;;;;;;5112484;27;8920;-68
2023/05/17 20:09:32;;;;;;;;;2.00;1.00;;;;;;;;5114885;27;9539;-68
2023/05/17 20:11:58;;;;;;;;;2.75;2.00;;;;;;;;5114732;27;8813;-68
2023/05/17 20:14:23;;;;;;;;;2.50;2.00;;;;;;;;5114701;28;8789;-68
2023/05/17 20:16:49;;;;;;;;;3.00;2.00;;;;;;;;5111626;27;8830;-68
2023/05/17 20:19:14;;;;;;;;;1.00;1.00;;;;;;;;5112692;27;8881;-70
2023/05/17 20:21:40;;;;;;;;;1.00;1.00;;;;;;;;5116246;27;8960;-74
2023/05/17 20:24:06;;;;;;;;;4.00;2.00;;;;;;;;4946984;27;10342;-74
2023/05/17 20:26:35;;;;;;;;;0.00;0.00;;;;;;;;5054412;28;11553;-74
2023/05/17 20:29:01;;;;;;;;;0.50;0.00;;;;;;;;5042589;28;8805;-74
2023/05/17 20:31:26;;;;;;;;;0.00;0.00;;;;;;;;5042563;28;10194;-74
2023/05/17 20:33:52;;;;;;;;;0.00;0.00;;;;;;;;5030092;28;9587;-74
2023/05/17 20:36:17;;;;;;;;;0.00;0.00;;;;;;;;5018247;28;8885;-74
2023/05/17 20:38:42;;;;;;;;;0.50;0.00;;;;;;;;5021444;28;8848;-73
2023/05/17 20:41:09;;;;;;;;;0.00;0.00;;;;;;;;5020577;28;8850;-74
2023/05/17 20:43:35;;;;;;;;;0.00;0.00;;;;;;;;5020354;28;8788;-74
2023/05/17 20:46:05;;;;;;;;;0.00;0.00;;;;;;;;5018857;28;10209;-73
2023/05/17 20:48:34;;;;;;;;;0.25;0.25;;;;;;;;5021240;28;9581;-73
2023/05/17 20:51:00;;;;;;;;;0.00;0.00;;;;;;;;5019956;28;10252;-73
2023/05/17 20:53:25;;;;;;;;;0.00;0.00;;;;;;;;5023539;28;10265;-74
2023/05/17 20:55:50;;;;;;;;;0.00;0.00;;;;;;;;5022708;28;8822;-73
2023/05/17 20:58:15;;;;;;;;;0.00;0.00;;;;;;;;5011053;28;9622;-73
2023/05/17 21:00:41;;;;;;;;;0.00;0.00;;;;;;;;5018844;28;8868;-74
2023/05/17 21:03:08;;;;;;;;;0.00;0.00;;;;;;;;5019365;28;8865;-73
2023/05/17 21:05:34;;;;;;;;;1.00;0.00;;;;;;;;5022768;28;9578;-72
2023/05/17 21:08:00;;;;;;;;;0.00;0.00;;;;;;;;5019905;28;10463;-74
2023/05/17 21:10:25;;;;;;;;;0.00;0.00;;;;;;;;5021238;28;10305;-75
2023/05/17 21:12:51;;;;;;;;;0.25;0.25;;;;;;;;5016441;28;8816;-76
2023/05/17 21:15:16;;;;;;;;;0.00;0.00;;;;;;;;5031367;28;8830;-75
2023/05/17 21:17:41;;;;;;;;;0.00;0.00;;;;;;;;5030532;28;8828;-79
2023/05/17 21:20:07;;;;;;;;;0.00;0.00;;;;;;;;5031216;28;8795;-75
2023/05/17 21:22:32;;;;;;;;;0.00;0.00;;;;;;;;5030987;28;9588;-74
2023/05/17 21:24:57;;;;;;;;;0.00;0.00;;;;;;;;5030990;28;8791;-75
2023/05/17 21:27:23;;;;;;;;;0.25;0.25;;;;;;;;5030916;28;8867;-74
2023/05/17 21:29:48;;;;;;;;;0.00;0.00;;;;;;;;5031231;28;8787;-79
2023/05/17 21:32:13;;;;;;;;;0.00;0.00;;;;;;;;5029321;28;8808;-71
2023/05/17 21:34:38;;;;;;;;;0.00;0.00;;;;;;;;5030555;28;8816;-71
2023/05/17 21:37:04;;;;;;;;;0.00;0.00;;;;;;;;5030740;28;8827;-72
2023/05/17 21:39:29;;;;;;;;;0.00;0.00;;;;;;;;5042942;28;8919;-78
2023/05/17 21:41:54;;;;;;;;;1.00;0.00;;;;;;;;5050093;28;8785;-74
2023/05/17 21:44:19;;;;;;;;;0.00;0.00;;;;;;;;5032995;28;8804;-74
2023/05/17 21:46:45;;;;;;;;;0.00;0.00;;;;;;;;5030868;28;8807;-73
2023/05/17 21:49:10;;;;;;;;;0.00;0.00;;;;;;;;5030694;28;8788;-74
2023/05/17 21:51:35;;;;;;;;;0.00;0.00;;;;;;;;5030667;28;8831;-74
2023/05/17 21:54:00;;;;;;;;;0.00;0.00;;;;;;;;5028993;28;8842;-75
2023/05/17 21:56:26;;;;;;;;;0.00;0.00;;;;;;;;5030436;28;8866;-74
2023/05/17 21:58:51;;;;;;;;;0.00;0.00;;;;;;;;5030629;28;8780;-75
2023/05/17 22:01:20;;;;;;;;;0.00;0.00;;;;;;;;5030431;28;8804;-74
2023/05/17 22:03:46;;;;;;;;;0.00;0.00;;;;;;;;5030421;28;8796;-73
2023/05/17 22:06:11;;;;;;;;;0.00;0.00;;;;;;;;5030284;28;10390;-73
2023/05/17 22:08:36;;;;;;;;;0.00;0.00;;;;;;;;5030194;28;10323;-73
2023/05/17 22:11:02;;;;;;;;;0.00;0.00;;;;;;;;5030425;28;8898;-74
2023/05/17 22:13:27;;;;;;;;;0.00;0.00;;;;;;;;5030525;28;8792;-73
2023/05/17 22:15:55;;;;;;;;;0.00;0.00;;;;;;;;5030012;28;8862;-73
2023/05/17 22:18:21;;;;;;;;;0.00;0.00;;;;;;;;5028610;28;8847;-74
2023/05/17 22:20:48;;;;;;;;;0.00;0.00;;;;;;;;5028601;28;10453;-73
2023/05/17 22:23:14;;;;;;;;;0.00;0.00;;;;;;;;5030402;28;8916;-74
2023/05/17 22:25:39;;;;;;;;;0.00;0.00;;;;;;;;5029956;28;11187;-73
2023/05/17 22:28:05;;;;;;;;;0.00;0.00;;;;;;;;5029930;28;8812;-73
2023/05/17 22:30:30;;;;;;;;;0.00;0.00;;;;;;;;5030033;28;8888;-73
2023/05/17 22:32:56;;;;;;;;;0.00;0.00;;;;;;;;5030007;28;8808;-74
2023/05/17 22:35:22;;;;;;;;;0.00;0.00;;;;;;;;5049153;28;8898;-73
2023/05/17 22:37:48;;;;;;;;;0.00;0.00;;;;;;;;5049655;28;8821;-74
2023/05/17 22:40:14;;;;;;;;;0.00;0.00;;;;;;;;5049613;28;10364;-73
2023/05/17 22:42:40;;;;;;;;;0.00;0.00;;;;;;;;5049650;28;10479;-74
2023/05/17 22:45:05;;;;;;;;;0.00;0.00;;;;;;;;5048190;28;8960;-74
2023/05/17 22:47:32;;;;;;;;;0.00;0.00;;;;;;;;5049551;28;10453;-74
2023/05/17 22:49:59;;;;;;;;;0.50;0.00;;;;;;;;5049627;28;8793;-74
2023/05/17 22:52:25;;;;;;;;;0.00;0.00;;;;;;;;5049234;28;10483;-75
2023/05/17 22:54:50;;;;;;;;;0.00;0.00;;;;;;;;5049277;28;11104;-75
2023/05/17 22:57:15;;;;;;;;;0.00;0.00;;;;;;;;5049490;28;8805;-75
2023/05/17 22:59:42;;;;;;;;;0.00;0.00;;;;;;;;5049330;28;8793;-75
2023/05/17 23:02:08;;;;;;;;;0.00;0.00;;;;;;;;5049515;28;8785;-75
2023/05/17 23:04:33;;;;;;;;;0.00;0.00;;;;;;;;5049325;28;10574;-75
2023/05/17 23:07:02;;;;;;;;;0.75;0.00;;;;;;;;5047786;28;8836;-75
2023/05/17 23:09:28;;;;;;;;;0.00;0.00;;;;;;;;5048005;28;8801;-75
2023/05/17 23:11:54;;;;;;;;;0.00;0.00;;;;;;;;5047841;28;10936;-75
2023/05/17 23:14:20;;;;;;;;;0.00;0.00;;;;;;;;5049171;28;10385;-75
2023/05/17 23:16:45;;;;;;;;;0.75;0.00;;;;;;;;5049134;28;8951;-75
2023/05/17 23:19:12;;;;;;;;;0.00;0.00;;;;;;;;5049141;28;10590;-75
2023/05/17 23:21:38;;;;;;;;;0.00;0.00;;;;;;;;5049114;28;8793;-75
2023/05/17 23:24:03;;;;;;;;;0.00;0.00;;;;;;;;5049102;28;10675;-75
2023/05/17 23:26:29;;;;;;;;;0.00;0.00;;;;;;;;5049068;28;8896;-74
2023/05/17 23:28:54;;;;;;;;;1.00;0.00;;;;;;;;5049055;28;8805;-75
2023/05/17 23:31:20;;;;;;;;;0.00;0.00;;;;;;;;5049026;28;8797;-75
2023/05/17 23:33:45;;;;;;;;;0.00;0.00;;;;;;;;5049189;28;8875;-75
2023/05/17 23:36:11;;;;;;;;;0.00;0.00;;;;;;;;5048965;28;10518;-75
2023/05/17 23:38:36;;;;;;;;;0.00;0.00;;;;;;;;5048984;28;8809;-74
2023/05/17 23:41:04;;;;;;;;;0.00;0.00;;;;;;;;5049132;28;8816;-74
2023/05/17 23:43:30;;;;;;;;;0.25;0.00;;;;;;;;5049027;28;8962;-75
2023/05/17 23:45:56;;;;;;;;;1.00;0.00;;;;;;;;5044234;28;11472;-75
2023/05/17 23:48:24;;;;;;;;;0.00;0.00;;;;;;;;5049065;28;8797;-75
2023/05/17 23:50:49;;;;;;;;;0.00;0.00;;;;;;;;5048918;28;11004;-75
2023/05/17 23:53:17;;;;;;;;;0.00;0.00;;;;;;;;5048793;28;10844;-75
2023/05/17 23:55:42;;;;;;;;;0.00;0.00;;;;;;;;5048997;28;8824;-75
2023/05/17 23:58:07;;;;;;;;;0.00;0.00;;;;;;;;5048643;28;10522;-74
